createdAt,value
2018-05-08T00:02:17.552Z,14.10
2018-05-08T00:04:45.087Z,14.10
2018-05-08T00:07:12.596Z,14.10
2018-05-08T00:09:40.951Z,13.70
2018-05-08T00:12:09.238Z,13.70
2018-05-08T00:14:37.548Z,13.70
2018-05-08T00:17:05.115Z,13.70
2018-05-08T00:19:32.663Z,13.70
2018-05-08T00:22:00.177Z,13.60
2018-05-08T00:24:27.705Z,13.60
2018-05-08T00:26:55.221Z,13.60
2018-05-08T00:29:23.534Z,13.60
2018-05-08T00:31:51.069Z,13.50
2018-05-08T00:34:19.370Z,13.30
2018-05-08T00:36:46.890Z,13.30
2018-05-08T00:39:15.263Z,13.10
2018-05-08T00:41:42.776Z,13.10
2018-05-08T00:44:10.333Z,13.20
2018-05-08T00:46:37.869Z,13.10
2018-05-08T00:49:05.385Z,13.20
2018-05-08T00:51:32.921Z,13.20
2018-05-08T00:54:01.197Z,13.40
2018-05-08T00:56:28.738Z,13.40
2018-05-08T00:58:56.273Z,13.50
2018-05-08T01:01:24.576Z,13.50
2018-05-08T01:03:52.849Z,13.50
2018-05-08T01:06:21.157Z,13.30
2018-05-08T01:08:48.669Z,13.30
2018-05-08T01:11:16.221Z,13.40
2018-05-08T01:13:44.490Z,13.30
2018-05-08T01:16:12.770Z,13.00
2018-05-08T01:18:40.318Z,13.00
2018-05-08T01:21:08.597Z,12.60
2018-05-08T01:23:36.896Z,12.70
2018-05-08T01:26:04.428Z,12.60
2018-05-08T01:28:32.751Z,12.70
2018-05-08T01:31:00.266Z,12.70
2018-05-08T01:33:28.566Z,12.60
2018-05-08T01:35:56.851Z,12.60
2018-05-08T01:38:24.386Z,12.60
2018-05-08T01:40:52.670Z,12.50
2018-05-08T01:43:20.249Z,12.40
2018-05-08T01:45:47.761Z,12.50
2018-05-08T01:48:15.301Z,12.60
2018-05-08T01:50:42.807Z,12.80
2018-05-08T01:53:11.106Z,12.80
2018-05-08T01:55:38.609Z,12.80
2018-05-08T01:58:06.148Z,12.60
2018-05-08T02:00:33.658Z,12.60
2018-05-08T02:03:02.939Z,12.60
2018-05-08T02:05:30.474Z,12.60
2018-05-08T02:07:57.986Z,12.50
2018-05-08T02:10:26.286Z,12.30
2018-05-08T02:12:53.857Z,12.30
2018-05-08T02:15:21.369Z,12.30
2018-05-08T02:17:49.646Z,12.20
2018-05-08T02:20:18.016Z,12.10
2018-05-08T02:22:45.582Z,12.10
2018-05-08T02:25:13.886Z,12.40
2018-05-08T02:27:41.402Z,12.40
2018-05-08T02:30:08.951Z,12.30
2018-05-08T02:32:36.470Z,12.30
2018-05-08T02:35:04.768Z,12.20
2018-05-08T02:37:32.396Z,12.10
2018-05-08T02:39:59.913Z,12.20
2018-05-08T02:42:27.426Z,12.30
2018-05-08T02:44:54.953Z,12.20
2018-05-08T02:47:23.229Z,12.10
2018-05-08T02:49:50.833Z,12.10
2018-05-08T02:52:19.055Z,12.10
2018-05-08T02:54:46.565Z,12.10
2018-05-08T02:57:14.104Z,11.90
2018-05-08T02:59:41.626Z,11.90
2018-05-08T03:02:09.943Z,11.90
2018-05-08T03:04:37.459Z,11.80
2018-05-08T03:07:05.000Z,11.90
2018-05-08T03:09:32.517Z,11.90
2018-05-08T03:12:00.046Z,11.80
2018-05-08T03:14:28.337Z,11.50
2018-05-08T03:16:56.671Z,11.40
2018-05-08T03:19:24.180Z,11.40
2018-05-08T03:21:52.478Z,11.60
2018-05-08T03:24:19.980Z,11.50
2018-05-08T03:26:48.402Z,11.60
2018-05-08T03:29:15.962Z,11.60
2018-05-08T03:31:43.491Z,11.60
2018-05-08T03:34:11.034Z,11.60
2018-05-08T03:36:38.546Z,11.50
2018-05-08T03:39:06.093Z,11.60
2018-05-08T03:41:34.373Z,11.40
2018-05-08T03:44:01.926Z,11.40
2018-05-08T03:46:30.238Z,11.30
2018-05-08T03:48:57.869Z,11.30
2018-05-08T03:51:25.377Z,11.30
2018-05-08T03:53:52.944Z,11.20
2018-05-08T03:56:20.444Z,11.20
2018-05-08T03:58:49.098Z,11.30
2018-05-08T04:01:28.245Z,11.30
2018-05-08T04:04:08.250Z,11.20
2018-05-08T04:09:34.940Z,11.00
2018-05-08T04:12:02.463Z,11.00
2018-05-08T04:14:30.010Z,11.10
2018-05-08T04:16:57.583Z,11.10
2018-05-08T04:19:25.141Z,11.20
2018-05-08T04:21:52.657Z,11.30
2018-05-08T04:24:20.958Z,11.40
2018-05-08T04:26:48.515Z,11.40
2018-05-08T04:29:16.081Z,11.20
2018-05-08T04:31:43.589Z,11.20
2018-05-08T04:34:11.129Z,11.30
2018-05-08T04:36:39.459Z,11.40
2018-05-08T04:39:07.760Z,11.40
2018-05-08T04:41:35.282Z,11.40
2018-05-08T04:44:03.597Z,11.60
2018-05-08T04:46:31.624Z,11.60
2018-05-08T04:48:59.171Z,11.80
2018-05-08T04:51:26.701Z,12.00
2018-05-08T04:53:54.280Z,12.10
2018-05-08T04:56:21.790Z,12.40
2018-05-08T04:58:49.334Z,12.50
2018-05-08T05:03:54.506Z,12.70
2018-05-08T05:06:22.025Z,13.00
2018-05-08T05:08:49.546Z,13.10
2018-05-08T05:11:17.095Z,13.10
2018-05-08T05:13:44.615Z,13.20
2018-05-08T05:16:13.321Z,13.40
2018-05-08T05:18:40.846Z,13.40
2018-05-08T05:21:08.381Z,13.30
2018-05-08T05:23:35.900Z,13.30
2018-05-08T05:26:03.479Z,13.40
2018-05-08T05:28:31.071Z,13.60
2018-05-08T05:30:58.605Z,13.70
2018-05-08T05:33:26.143Z,13.70
2018-05-08T05:35:53.682Z,14.00
2018-05-08T05:38:21.200Z,14.00
2018-05-08T05:40:48.874Z,14.10
2018-05-08T05:43:16.409Z,14.20
2018-05-08T05:45:44.699Z,14.30
2018-05-08T05:48:12.234Z,14.20
2018-05-08T05:50:39.761Z,14.30
2018-05-08T05:53:08.137Z,14.30
2018-05-08T05:55:36.413Z,14.30
2018-05-08T05:58:03.949Z,14.20
2018-05-08T06:00:31.470Z,14.30
2018-05-08T06:02:59.001Z,14.30
2018-05-08T06:05:26.521Z,14.30
2018-05-08T06:07:54.053Z,14.20
2018-05-08T06:10:21.584Z,14.10
2018-05-08T06:12:49.166Z,14.20
2018-05-08T06:15:16.705Z,14.30
2018-05-08T06:17:44.249Z,14.40
2018-05-08T06:20:12.521Z,14.40
2018-05-08T06:22:40.063Z,14.40
2018-05-08T06:25:07.593Z,14.50
2018-05-08T06:27:35.128Z,14.50
2018-05-08T06:30:03.436Z,14.70
2018-05-08T06:32:30.957Z,14.70
2018-05-08T06:34:58.505Z,14.80
2018-05-08T06:37:26.865Z,15.00
2018-05-08T06:39:55.181Z,14.90
2018-05-08T06:42:22.771Z,14.90
2018-05-08T06:44:50.396Z,15.00
2018-05-08T06:47:17.936Z,15.20
2018-05-08T06:49:46.225Z,15.40
2018-05-08T06:52:14.521Z,15.50
2018-05-08T06:54:42.033Z,15.50
2018-05-08T06:57:09.576Z,15.70
2018-05-08T06:59:37.117Z,15.80
2018-05-08T07:02:04.633Z,15.90
2018-05-08T07:04:32.965Z,16.30
2018-05-08T07:07:00.482Z,16.20
2018-05-08T07:09:28.765Z,16.40
2018-05-08T07:11:56.352Z,16.50
2018-05-08T07:14:23.862Z,16.60
2018-05-08T07:16:52.214Z,16.90
2018-05-08T07:19:19.726Z,16.90
2018-05-08T07:21:47.298Z,17.00
2018-05-08T07:24:15.606Z,17.40
2018-05-08T07:26:43.149Z,17.40
2018-05-08T07:29:10.681Z,17.60
2018-05-08T07:31:38.965Z,17.70
2018-05-08T07:34:06.501Z,17.60
2018-05-08T07:36:34.020Z,17.90
2018-05-08T07:39:01.559Z,18.10
2018-05-08T07:41:29.133Z,18.30
2018-05-08T07:43:57.466Z,18.30
2018-05-08T07:46:24.976Z,18.30
2018-05-08T07:48:52.513Z,18.30
2018-05-08T07:51:20.019Z,18.40
2018-05-08T07:53:48.337Z,18.60
2018-05-08T07:56:15.855Z,18.60
2018-05-08T07:58:44.189Z,18.60
2018-05-08T08:01:11.749Z,18.50
2018-05-08T08:03:39.554Z,18.60
2018-05-08T08:06:07.118Z,18.80
2018-05-08T08:08:35.425Z,18.90
2018-05-08T08:11:02.966Z,18.90
2018-05-08T08:13:30.495Z,18.90
2018-05-08T08:15:58.040Z,19.00
2018-05-08T08:18:25.562Z,19.10
2018-05-08T08:20:53.894Z,19.40
2018-05-08T08:23:21.402Z,19.30
2018-05-08T08:25:48.951Z,19.60
2018-05-08T08:28:16.529Z,19.80
2018-05-08T08:30:44.045Z,20.10
2018-05-08T08:33:12.352Z,20.40
2018-05-08T08:35:39.872Z,20.40
2018-05-08T08:38:08.222Z,20.60
2018-05-08T08:40:35.729Z,20.50
2018-05-08T08:43:04.055Z,20.90
2018-05-08T08:45:31.609Z,20.90
2018-05-08T08:47:59.129Z,21.20
2018-05-08T08:50:26.667Z,21.10
2018-05-08T08:52:54.210Z,21.20
2018-05-08T08:55:21.737Z,21.20
2018-05-08T08:57:49.287Z,21.20
2018-05-08T09:00:16.830Z,21.30
2018-05-08T09:02:44.361Z,20.90
2018-05-08T09:05:12.654Z,21.10
2018-05-08T09:07:40.962Z,21.30
2018-05-08T09:10:08.470Z,21.30
2018-05-08T09:12:35.993Z,21.20
2018-05-08T09:15:03.508Z,21.50
2018-05-08T09:17:31.815Z,21.60
2018-05-08T09:19:59.369Z,21.60
2018-05-08T09:22:27.013Z,21.80
2018-05-08T09:24:55.290Z,22.00
2018-05-08T09:27:22.955Z,22.00
2018-05-08T09:29:50.673Z,22.10
2018-05-08T09:32:18.205Z,22.10
2018-05-08T09:34:45.737Z,22.00
2018-05-08T09:37:13.255Z,22.10
2018-05-08T09:39:40.854Z,21.90
2018-05-08T09:44:34.664Z,22.20
2018-05-08T09:47:02.173Z,22.10
2018-05-08T09:49:29.704Z,22.20
2018-05-08T09:51:57.213Z,22.20
2018-05-08T09:54:25.524Z,22.40
2018-05-08T09:56:53.307Z,22.40
2018-05-08T09:59:20.906Z,22.40
2018-05-08T10:01:48.457Z,22.40
2018-05-08T10:04:16.825Z,22.80
2018-05-08T10:06:45.223Z,22.70
2018-05-08T10:09:12.725Z,22.70
2018-05-08T10:11:40.274Z,22.80
2018-05-08T10:14:07.809Z,22.90
2018-05-08T10:16:35.373Z,23.10
2018-05-08T10:19:02.905Z,23.10
2018-05-08T10:21:30.412Z,23.10
2018-05-08T10:23:57.953Z,23.20
2018-05-08T10:26:25.491Z,23.50
2018-05-08T10:28:53.845Z,23.90
2018-05-08T10:31:21.399Z,23.80
2018-05-08T10:33:48.950Z,23.90
2018-05-08T10:36:16.504Z,23.80
2018-05-08T10:38:44.043Z,23.70
2018-05-08T10:41:11.566Z,23.80
2018-05-08T10:43:39.866Z,23.70
2018-05-08T10:46:07.474Z,23.70
2018-05-08T10:48:35.025Z,23.80
2018-05-08T10:51:02.543Z,23.90
2018-05-08T10:53:30.857Z,24.00
2018-05-08T10:55:58.396Z,23.90
2018-05-08T10:58:25.959Z,24.10
2018-05-08T11:00:53.688Z,24.10
2018-05-08T11:03:21.982Z,24.10
2018-05-08T11:05:49.560Z,24.10
2018-05-08T11:08:17.498Z,24.30
2018-05-08T11:10:45.799Z,24.00
2018-05-08T11:13:13.318Z,24.10
2018-05-08T11:15:40.910Z,24.20
2018-05-08T11:18:08.431Z,24.30
2018-05-08T11:20:36.004Z,24.30
2018-05-08T11:23:04.305Z,24.60
2018-05-08T11:25:31.866Z,24.60
2018-05-08T11:27:59.388Z,24.60
2018-05-08T11:30:26.982Z,24.60
2018-05-08T11:32:54.541Z,24.50
2018-05-08T11:35:22.085Z,24.50
2018-05-08T11:37:50.412Z,24.60
2018-05-08T11:40:17.946Z,24.50
2018-05-08T11:42:45.455Z,24.60
2018-05-08T11:45:12.973Z,24.50
2018-05-08T11:47:40.506Z,24.50
2018-05-08T11:50:08.047Z,24.60
2018-05-08T11:52:35.577Z,24.70
2018-05-08T11:55:03.139Z,24.70
2018-05-08T11:57:30.700Z,24.50
2018-05-08T11:59:58.214Z,24.60
2018-05-08T12:02:25.760Z,24.70
2018-05-08T12:04:54.046Z,24.60
2018-05-08T12:07:21.596Z,24.60
2018-05-08T12:09:49.901Z,24.60
2018-05-08T12:12:17.417Z,24.60
2018-05-08T12:14:45.739Z,24.80
2018-05-08T12:17:13.275Z,24.80
2018-05-08T12:19:41.590Z,24.90
2018-05-08T12:22:09.093Z,24.90
2018-05-08T12:24:37.402Z,24.70
2018-05-08T12:27:04.922Z,24.70
2018-05-08T12:29:32.466Z,24.70
2018-05-08T12:32:00.000Z,24.70
2018-05-08T12:34:27.559Z,24.70
2018-05-08T12:36:55.146Z,24.60
2018-05-08T12:39:22.715Z,24.60
2018-05-08T12:41:50.247Z,24.30
2018-05-08T12:44:17.787Z,24.30
2018-05-08T12:46:45.341Z,24.20
2018-05-08T12:49:12.850Z,24.20
2018-05-08T12:51:40.421Z,24.20
2018-05-08T12:54:08.702Z,24.10
2018-05-08T12:56:37.007Z,24.10
2018-05-08T12:59:04.633Z,24.10
2018-05-08T13:01:32.916Z,24.10
2018-05-08T13:04:00.485Z,24.10
2018-05-08T13:06:28.807Z,24.10
2018-05-08T13:08:56.424Z,24.10
2018-05-08T13:11:24.731Z,24.10
2018-05-08T13:13:52.266Z,24.10
2018-05-08T13:16:20.569Z,24.10
2018-05-08T13:18:48.129Z,24.00
2018-05-08T13:21:15.667Z,24.10
2018-05-08T13:23:44.009Z,24.10
2018-05-08T13:26:11.529Z,24.10
2018-05-08T13:28:39.068Z,24.10
2018-05-08T13:31:06.704Z,24.10
2018-05-08T13:33:34.184Z,24.00
2018-05-08T13:36:02.479Z,24.10
2018-05-08T13:38:30.081Z,24.10
2018-05-08T13:40:57.625Z,24.20
2018-05-08T13:43:25.170Z,24.10
2018-05-08T13:45:53.478Z,24.00
2018-05-08T13:48:21.001Z,24.00
2018-05-08T13:50:49.314Z,24.30
2018-05-08T13:53:16.826Z,24.30
2018-05-08T13:55:44.372Z,24.20
2018-05-08T13:58:12.651Z,24.20
2018-05-08T14:00:40.218Z,24.20
2018-05-08T14:03:09.296Z,24.30
2018-05-08T14:05:37.671Z,24.20
2018-05-08T14:08:07.318Z,24.20
2018-05-08T14:10:34.886Z,24.20
2018-05-08T14:13:02.472Z,24.30
2018-05-08T14:15:30.029Z,24.30
2018-05-08T14:17:57.496Z,24.30
2018-05-08T14:20:25.033Z,24.30
2018-05-08T14:22:52.573Z,24.30
2018-05-08T14:25:21.050Z,24.50
2018-05-08T14:27:48.564Z,24.50
2018-05-08T14:30:16.861Z,24.60
2018-05-08T14:32:45.165Z,24.70
2018-05-08T14:35:12.696Z,24.70
2018-05-08T14:37:41.013Z,24.70
2018-05-08T14:40:08.535Z,24.60
2018-05-08T14:42:36.876Z,24.70
2018-05-08T14:45:04.417Z,24.70
2018-05-08T14:47:31.965Z,24.80
2018-05-08T14:50:00.244Z,24.60
2018-05-08T14:52:27.792Z,24.60
2018-05-08T14:54:55.330Z,24.60
2018-05-08T14:57:22.850Z,24.50
2018-05-08T14:59:50.402Z,24.60
2018-05-08T15:02:17.929Z,24.60
2018-05-08T15:04:45.454Z,24.60
2018-05-08T15:07:13.741Z,24.60
2018-05-08T15:09:41.298Z,24.60
2018-05-08T15:12:08.870Z,24.70
2018-05-08T15:14:36.407Z,24.70
2018-05-08T15:17:04.680Z,24.80
2018-05-08T15:19:33.007Z,24.60
2018-05-08T15:22:00.554Z,24.60
2018-05-08T15:24:28.137Z,24.60
2018-05-08T15:26:55.650Z,24.70
2018-05-08T15:29:23.243Z,24.60
2018-05-08T15:31:50.769Z,24.80
2018-05-08T15:34:19.104Z,24.90
2018-05-08T15:36:46.700Z,24.90
2018-05-08T15:39:14.989Z,25.00
2018-05-08T15:41:42.549Z,24.90
2018-05-08T15:44:10.818Z,25.00
2018-05-08T15:46:39.116Z,24.90
2018-05-08T15:49:07.402Z,24.80
2018-05-08T15:51:34.945Z,24.80
2018-05-08T15:54:02.463Z,24.80
2018-05-08T15:56:30.026Z,24.80
2018-05-08T15:58:57.577Z,24.80
2018-05-08T16:01:25.122Z,24.70
2018-05-08T16:03:52.631Z,24.60
2018-05-08T16:06:20.908Z,24.70
2018-05-08T16:08:49.221Z,24.60
2018-05-08T16:11:16.763Z,24.60
2018-05-08T16:13:44.308Z,24.50
2018-05-08T16:16:11.825Z,24.40
2018-05-08T16:18:39.391Z,24.20
2018-05-08T16:21:06.905Z,24.00
2018-05-08T16:23:34.459Z,23.80
2018-05-08T16:26:01.977Z,23.80
2018-05-08T16:28:29.563Z,23.80
2018-05-08T16:30:57.854Z,23.90
2018-05-08T16:33:25.399Z,23.80
2018-05-08T16:35:52.920Z,24.00
2018-05-08T16:38:20.463Z,24.00
2018-05-08T16:40:47.988Z,23.90
2018-05-08T16:43:15.525Z,23.90
2018-05-08T16:45:43.828Z,23.80
2018-05-08T16:48:12.133Z,23.80
2018-05-08T16:50:39.679Z,23.70
2018-05-08T16:53:07.222Z,23.70
2018-05-08T16:55:34.774Z,23.80
2018-05-08T16:58:02.289Z,23.80
2018-05-08T17:00:30.579Z,23.80
2018-05-08T17:02:58.146Z,23.70
2018-05-08T17:05:26.477Z,23.60
2018-05-08T17:07:54.022Z,23.60
2018-05-08T17:10:21.590Z,23.60
2018-05-08T17:12:49.838Z,23.70
2018-05-08T17:15:17.422Z,23.60
2018-05-08T17:17:44.954Z,23.60
2018-05-08T17:20:13.226Z,23.50
2018-05-08T17:22:41.528Z,23.50
2018-05-08T17:25:09.889Z,23.50
2018-05-08T17:27:37.493Z,23.50
2018-05-08T17:30:05.039Z,23.40
2018-05-08T17:32:32.564Z,23.20
2018-05-08T17:35:01.191Z,23.10
2018-05-08T17:37:28.817Z,23.10
2018-05-08T17:39:56.362Z,23.10
2018-05-08T17:42:24.682Z,23.10
2018-05-08T17:44:52.229Z,23.00
2018-05-08T17:47:20.520Z,22.90
2018-05-08T17:49:48.064Z,22.90
2018-05-08T17:52:16.374Z,22.90
2018-05-08T17:54:44.667Z,22.80
2018-05-08T17:57:12.969Z,22.80
2018-05-08T17:59:41.276Z,22.60
2018-05-08T18:02:08.826Z,22.60
2018-05-08T18:04:36.362Z,22.50
2018-05-08T18:07:04.659Z,22.20
2018-05-08T18:09:32.224Z,22.20
2018-05-08T18:11:59.818Z,22.10
2018-05-08T18:14:27.375Z,22.00
2018-05-08T18:16:54.955Z,21.90
2018-05-08T18:19:22.509Z,21.80
2018-05-08T18:21:50.026Z,21.80
2018-05-08T18:24:18.337Z,21.70
2018-05-08T18:26:46.615Z,21.70
2018-05-08T18:29:14.218Z,21.70
2018-05-08T18:31:41.805Z,21.70
2018-05-08T18:34:09.323Z,21.60
2018-05-08T18:36:37.873Z,21.50
2018-05-08T18:39:05.410Z,21.50
2018-05-08T18:41:33.118Z,21.40
2018-05-08T18:44:00.670Z,21.30
2018-05-08T18:46:28.961Z,21.20
2018-05-08T18:48:57.241Z,21.10
2018-05-08T18:51:25.539Z,21.00
2018-05-08T18:53:53.969Z,20.90
2018-05-08T18:56:21.489Z,20.90
2018-05-08T18:58:49.077Z,20.80
2018-05-08T19:01:16.650Z,20.70
2018-05-08T19:03:44.205Z,20.60
2018-05-08T19:06:11.753Z,20.40
2018-05-08T19:08:39.295Z,20.30
2018-05-08T19:11:12.363Z,20.10
2018-05-08T19:13:40.726Z,19.90
2018-05-08T19:16:09.023Z,19.90
2018-05-08T19:18:42.201Z,19.80
2018-05-08T19:21:09.710Z,19.80
2018-05-08T19:23:37.269Z,19.60
2018-05-08T19:26:04.794Z,19.60
2018-05-08T19:28:38.795Z,19.50
2018-05-08T19:31:07.064Z,19.50
2018-05-08T19:33:36.168Z,19.40
2018-05-08T19:39:04.725Z,19.20
2018-05-08T19:41:32.987Z,19.20
2018-05-08T19:44:00.543Z,19.20
2018-05-08T19:46:28.846Z,19.00
2018-05-08T19:48:56.427Z,18.90
2018-05-08T19:51:23.997Z,18.80
2018-05-08T19:53:52.344Z,18.60
2018-05-08T19:56:19.900Z,18.60
2018-05-08T19:58:48.225Z,18.50
2018-05-08T20:01:15.773Z,18.50
2018-05-08T20:03:44.045Z,18.20
2018-05-08T20:06:12.369Z,18.10
2018-05-08T20:08:39.893Z,18.00
2018-05-08T20:11:07.441Z,18.00
2018-05-08T20:13:35.001Z,17.90
2018-05-08T20:16:03.326Z,17.70
2018-05-08T20:18:31.840Z,17.70
2018-05-08T20:20:59.441Z,17.70
2018-05-08T20:23:27.707Z,17.40
2018-05-08T20:25:56.041Z,17.20
2018-05-08T20:28:23.576Z,17.20
2018-05-08T20:30:51.095Z,17.10
2018-05-08T20:33:20.187Z,17.00
2018-05-08T20:35:48.471Z,16.80
2018-05-08T20:38:16.041Z,16.80
2018-05-08T20:40:44.322Z,16.70
2018-05-08T20:43:11.933Z,16.70
2018-05-08T20:45:39.480Z,16.60
2018-05-08T20:48:07.106Z,16.50
2018-05-08T20:50:34.652Z,16.40
2018-05-08T20:53:02.961Z,16.10
2018-05-08T20:55:30.542Z,16.10
2018-05-08T20:57:58.077Z,16.00
2018-05-08T21:00:25.639Z,16.10
2018-05-08T21:02:53.186Z,16.00
2018-05-08T21:05:20.740Z,15.90
2018-05-08T21:07:48.270Z,15.70
2018-05-08T21:10:15.877Z,15.70
2018-05-08T21:12:43.402Z,15.80
2018-05-08T21:15:10.973Z,15.80
2018-05-08T21:17:39.342Z,15.60
2018-05-08T21:20:07.589Z,15.60
2018-05-08T21:22:35.117Z,15.60
2018-05-08T21:25:02.671Z,15.40
2018-05-08T21:27:36.705Z,15.50
2018-05-08T21:30:09.835Z,15.50
2018-05-08T21:32:38.162Z,15.20
2018-05-08T21:35:05.840Z,15.10
2018-05-08T21:37:33.381Z,15.00
2018-05-08T21:40:00.897Z,14.90
2018-05-08T21:42:29.234Z,14.80
2018-05-08T21:44:56.762Z,14.80
2018-05-08T21:47:25.098Z,14.70
2018-05-08T21:49:52.633Z,14.60
2018-05-08T21:52:20.145Z,14.60
2018-05-08T21:54:47.691Z,14.70
2018-05-08T21:57:16.005Z,14.70
2018-05-08T21:59:44.094Z,14.60
2018-05-08T22:02:11.646Z,14.70
2018-05-08T22:04:39.189Z,14.50
2018-05-08T22:07:06.716Z,14.40
2018-05-08T22:09:35.025Z,14.30
2018-05-08T22:12:02.534Z,14.30
2018-05-08T22:14:30.050Z,14.30
2018-05-08T22:16:57.600Z,14.30
2018-05-08T22:19:25.134Z,14.40
2018-05-08T22:21:53.459Z,14.30
2018-05-08T22:24:20.981Z,14.30
2018-05-08T22:26:48.519Z,14.30
2018-05-08T22:29:16.932Z,14.20
2018-05-08T22:31:44.450Z,14.20
2018-05-08T22:34:11.990Z,14.20
2018-05-08T22:36:39.514Z,14.20
2018-05-08T22:39:07.053Z,14.00
2018-05-08T22:41:35.375Z,13.90
2018-05-08T22:44:02.882Z,13.90
2018-05-08T22:46:31.157Z,13.90
2018-05-08T22:48:59.463Z,13.80
2018-05-08T22:51:26.997Z,13.90
2018-05-08T22:53:55.295Z,13.70
2018-05-08T22:56:22.808Z,13.70
2018-05-08T22:58:50.348Z,13.70
2018-05-08T23:01:17.883Z,13.60
2018-05-08T23:03:45.412Z,13.50
2018-05-08T23:06:13.694Z,13.60
2018-05-08T23:08:41.293Z,13.60
2018-05-08T23:11:09.521Z,13.60
2018-05-08T23:13:37.838Z,13.50
2018-05-08T23:16:05.361Z,13.50
2018-05-08T23:18:33.662Z,13.20
2018-05-08T23:21:01.194Z,13.20
2018-05-08T23:23:29.475Z,13.10
2018-05-08T23:25:57.779Z,13.00
2018-05-08T23:28:25.297Z,13.00
2018-05-08T23:30:53.589Z,12.90
2018-05-08T23:33:22.646Z,13.00
2018-05-08T23:35:50.196Z,13.00
2018-05-08T23:38:17.702Z,13.00
2018-05-08T23:40:46.006Z,13.00
2018-05-08T23:43:13.529Z,12.90
2018-05-08T23:45:41.830Z,12.90
2018-05-08T23:48:09.337Z,12.90
2018-05-08T23:50:36.864Z,12.70
2018-05-08T23:53:04.385Z,12.60
2018-05-08T23:55:32.690Z,12.50
2018-05-08T23:58:00.206Z,12.50
